Nearby METAR Reports

 

KRYN - Tucson/Ryan Fld, Arizona, USA
Distance from station: SSW 16mi, 26km
Updated: Fri, 03-Apr-2020 7:45pm MST
NOT Current
Clear
Clear
 Wind from SSW
Wind: SSW 13 mph , 20 km/h
Temperature: 73°F , 23°C
Dew Point: 28°F , -2°C
Humidity: 19%
Barometer: 29.82 inHg , 1009.8 hPa
Clouds: Clear
Visibility: 10 miles , 16 km
2020/04/04 02:45 KRYN 040245Z 21011KT 10SM CLR 23/M02 A2982 RMK LAST
KTUS - Tucson, Arizona, USA
Distance from station: SSE 18mi, 28km
Updated: Fri, 03-Apr-2020 10:53pm MST
Clear
Clear
 Wind from S
Wind: S 7 mph , 11 km/h
Temperature: 64°F , 18°C
Dew Point: 30°F , -1°C
Humidity: 28%
Barometer: 29.91 inHg , 1012.9 hPa
Clouds: Clear
Visibility: 10 miles , 16 km
2020/04/04 05:53 KTUS 040553Z 19006KT 10SM CLR 18/M01 A2991 RMK AO2 SLP091 T01781006 10272 20178 51022
 
KDMA - Davis/Tucson, Arizona, USA
Distance from station: SE 18mi, 29km
Updated: Fri, 03-Apr-2020 10:58pm MST
Clear
Clear
 Wind from SE
Wind: SE 8 mph , 13 km/h
Temperature: 61°F , 16°C
Dew Point: 32°F , 0°C
Humidity: 34%
Barometer: 29.89 inHg , 1012.2 hPa
Clouds: Clear
Visibility: 10 miles , 16 km
2020/04/04 05:58 KDMA 040558Z AUTO 14007KT 10SM CLR 16/00 A2989 RMK AO2 SLP089 T01571001 10269 20157 52021 FZRANO $
KCGZ - Casa Granda, Arizona, USA
Distance from station: NW 57mi, 92km
Updated: Fri, 03-Apr-2020 10:56pm MST
Clear
Clear
 Wind from SW
Wind: SW 5 mph , 7 km/h
Temperature: 63°F , 17°C
Dew Point: 34°F , 1°C
Humidity: 34%
Barometer: 29.83 inHg , 1010.2 hPa
Clouds: Clear
Visibility: 10 miles , 16 km
2020/04/04 05:56 KCGZ 040556Z AUTO 22004KT 10SM CLR 17/01 A2983 RMK AO2 SLP092 T01720011 10278 20167 51021
 
KALK - Pioneer Airfield, Arizona, USA
Distance from station: SE 65mi, 104km
Updated: Fri, 03-Apr-2020 11:26pm MST
unable to load KALK data RC=
unable to load KALK data RC=
 
KOLS - Nogales, Arizona, USA
Distance from station: S 67mi, 108km
Updated: Fri, 03-Apr-2020 10:54pm MST
Clear
Clear
 Wind from S
Wind: S 7 mph , 11 km/h
Temperature: 55°F , 13°C
Dew Point: 27°F , -3°C
Humidity: 33%
Barometer: 29.96 inHg , 1014.6 hPa
Clouds: Clear
Visibility: 10 miles , 16 km
2020/04/04 05:54 KOLS 040554Z AUTO 18006KT 10SM CLR 13/M03 A2996 RMK AO2 SLP093 T01331033 10239 20133 51019
 
KFHU - Fort Huachuca, Arizona, USA
Distance from station: SE 69mi, 110km
Updated: Fri, 03-Apr-2020 10:58pm MST
Clear
Clear
 Wind from SW
Wind: SW 7 mph , 11 km/h
Temperature: 55°F , 13°C
Dew Point: 27°F , -3°C
Humidity: 33%
Barometer: 29.99 inHg , 1015.6 hPa
Clouds: Clear
Visibility: 10 miles , 16 km
2020/04/04 05:58 KFHU 040558Z AUTO 23006KT 10SM CLR 13/M03 A2999 RMK AO2 SLP097 T01311035 10216 20131 52016
KIWA - Chandler/Mesa, Arizona, USA
Distance from station: NNW 73mi, 117km
Updated: Fri, 03-Apr-2020 10:50pm MST
Clear
Clear
 Wind from SSE
Wind: SSE 6 mph , 9 km/h
Temperature: 61°F , 16°C
Dew Point: 39°F , 4°C
Humidity: 45%
Barometer: 29.81 inHg , 1009.5 hPa
Clouds: Clear
Visibility: 10 miles , 16 km
2020/04/04 05:50 KIWA 040550Z 15005KT 10SM SKC 16/04 A2981